createdAt,value
2022-09-22T00:04:39.305Z,58.94
2022-09-22T00:09:43.328Z,59.05
2022-09-22T00:14:46.815Z,59.10
2022-09-22T00:19:50.748Z,58.88
2022-09-22T00:24:54.164Z,58.91
2022-09-22T00:29:57.364Z,58.93
2022-09-22T00:35:00.586Z,58.85
2022-09-22T00:40:04.264Z,58.93
2022-09-22T00:45:12.182Z,58.71
2022-09-22T00:50:22.141Z,58.82
2022-09-22T00:55:34.720Z,58.84
2022-09-22T01:00:38.779Z,58.86
2022-09-22T01:05:44.502Z,59.17
2022-09-22T01:10:49.250Z,59.10
2022-09-22T01:16:16.912Z,59.21
2022-09-22T01:21:34.784Z,59.32
2022-09-22T01:27:01.135Z,59.23
2022-09-22T01:32:21.626Z,59.39
2022-09-22T01:37:40.395Z,59.64
2022-09-22T01:42:58.491Z,59.43
2022-09-22T01:48:34.518Z,59.74
2022-09-22T01:53:45.048Z,59.64
2022-09-22T01:58:55.994Z,59.55
2022-09-22T02:04:14.657Z,59.72
2022-09-22T02:09:21.744Z,59.63
2022-09-22T02:14:26.459Z,59.61
2022-09-22T02:19:35.889Z,59.58
2022-09-22T02:24:42.449Z,59.23
2022-09-22T02:29:51.149Z,59.39
2022-09-22T02:34:55.985Z,59.42
2022-09-22T02:40:10.202Z,59.64
2022-09-22T02:45:26.825Z,59.51
2022-09-22T02:50:31.413Z,59.53
2022-09-22T02:55:35.282Z,59.50
2022-09-22T03:00:38.741Z,59.47
2022-09-22T03:05:42.133Z,59.41
2022-09-22T03:10:45.741Z,59.43
2022-09-22T03:15:49.151Z,59.51
2022-09-22T03:20:52.262Z,59.29
2022-09-22T03:25:55.607Z,59.24
2022-09-22T03:30:59.161Z,59.27
2022-09-22T03:36:02.803Z,59.22
2022-09-22T03:41:06.125Z,59.26
2022-09-22T03:46:09.597Z,59.11
2022-09-22T03:51:13.134Z,59.07
2022-09-22T03:56:16.682Z,59.02
2022-09-22T04:01:20.712Z,58.92
2022-09-22T04:06:24.695Z,58.99
2022-09-22T04:11:28.266Z,58.99
2022-09-22T04:16:31.875Z,58.88
2022-09-22T04:21:35.187Z,59.24
2022-09-22T04:26:51.590Z,58.93
2022-09-22T04:32:00.010Z,58.82
2022-09-22T04:37:03.626Z,58.57
2022-09-22T04:42:07.859Z,58.25
2022-09-22T04:47:11.378Z,57.89
2022-09-22T04:52:15.002Z,57.37
2022-09-22T04:57:20.579Z,56.33
2022-09-22T05:02:24.287Z,52.46
2022-09-22T05:07:27.703Z,51.82
2022-09-22T05:12:31.065Z,53.19
2022-09-22T05:17:34.546Z,54.39
2022-09-22T05:22:42.316Z,55.15
2022-09-22T05:27:51.295Z,55.70
2022-09-22T05:32:55.165Z,55.82
2022-09-22T05:37:58.512Z,55.81
2022-09-22T05:43:01.594Z,55.99
2022-09-22T05:48:04.907Z,55.56
2022-09-22T05:53:10.199Z,55.37
2022-09-22T05:58:13.615Z,55.15
2022-09-22T06:03:17.144Z,55.20
2022-09-22T06:08:20.566Z,55.20
2022-09-22T06:13:23.769Z,54.71
2022-09-22T06:18:27.148Z,55.39
2022-09-22T06:23:30.837Z,54.99
2022-09-22T06:28:34.700Z,55.08
2022-09-22T06:33:38.339Z,54.85
2022-09-22T06:38:41.608Z,55.04
2022-09-22T06:43:45.221Z,55.03
2022-09-22T06:48:50.683Z,54.70
2022-09-22T06:53:54.753Z,54.23
2022-09-22T06:59:13.112Z,53.99
2022-09-22T07:04:16.889Z,53.74
2022-09-22T07:09:20.361Z,53.65
2022-09-22T07:14:24.068Z,53.21
2022-09-22T07:19:27.357Z,52.56
2022-09-22T07:24:31.096Z,52.42
2022-09-22T07:29:34.702Z,51.70
2022-09-22T07:34:39.244Z,51.31
2022-09-22T07:39:42.844Z,51.26
2022-09-22T07:44:46.407Z,51.38
2022-09-22T07:49:49.687Z,51.20
2022-09-22T07:54:53.015Z,50.95
2022-09-22T07:59:56.379Z,50.98
2022-09-22T08:04:59.820Z,50.96
2022-09-22T08:10:03.397Z,50.58
2022-09-22T08:15:07.019Z,50.18
2022-09-22T08:20:10.635Z,50.04
2022-09-22T08:25:14.066Z,49.84
2022-09-22T08:30:17.689Z,49.57
2022-09-22T08:35:21.199Z,49.37
2022-09-22T08:40:24.865Z,49.42
2022-09-22T08:45:33.027Z,49.73
2022-09-22T08:50:40.120Z,49.88
2022-09-22T08:55:47.322Z,49.90
2022-09-22T09:01:14.112Z,49.96
2022-09-22T09:06:57.748Z,50.11
2022-09-22T09:12:06.931Z,49.63
2022-09-22T09:17:15.542Z,49.47
2022-09-22T09:22:26.148Z,49.06
2022-09-22T09:27:38.530Z,48.74
2022-09-22T09:32:59.125Z,49.00
2022-09-22T09:38:07.801Z,49.12
2022-09-22T09:43:11.306Z,48.80
2022-09-22T09:48:33.980Z,48.94
2022-09-22T09:53:44.621Z,48.92
2022-09-22T09:59:02.416Z,48.86
2022-09-22T10:04:05.884Z,49.16
2022-09-22T10:09:09.857Z,49.12
2022-09-22T10:14:19.611Z,49.35
2022-09-22T10:19:28.774Z,50.06
2022-09-22T10:24:33.582Z,50.17
2022-09-22T10:29:36.972Z,49.84
2022-09-22T10:34:47.587Z,49.73
2022-09-22T10:39:58.511Z,49.63
2022-09-22T10:45:06.915Z,49.23
2022-09-22T10:50:52.912Z,48.77
2022-09-22T10:56:11.157Z,49.28
2022-09-22T11:01:33.131Z,49.36
2022-09-22T11:06:56.755Z,49.33
2022-09-22T11:12:19.068Z,49.58
2022-09-22T11:17:48.473Z,49.65
2022-09-22T11:23:18.228Z,49.45
2022-09-22T11:28:43.060Z,49.41
2022-09-22T11:34:10.333Z,49.68
2022-09-22T11:39:51.864Z,49.26
2022-09-22T11:45:06.590Z,49.36
2022-09-22T11:50:15.962Z,49.66
2022-09-22T11:55:57.834Z,49.55
2022-09-22T12:01:20.965Z,50.10
2022-09-22T12:06:30.612Z,49.93
2022-09-22T12:11:37.928Z,49.73
2022-09-22T12:16:44.135Z,49.98
2022-09-22T12:21:51.937Z,50.03
2022-09-22T12:26:58.419Z,49.85
2022-09-22T12:32:02.405Z,49.28
2022-09-22T12:37:36.450Z,49.67
2022-09-22T12:42:46.130Z,49.48
2022-09-22T12:47:53.617Z,49.40
2022-09-22T12:53:09.861Z,49.66
2022-09-22T12:58:19.104Z,50.02
2022-09-22T13:03:25.479Z,49.91
2022-09-22T13:08:32.076Z,50.18
2022-09-22T13:13:49.092Z,50.48
2022-09-22T13:18:59.458Z,50.98
2022-09-22T13:24:04.242Z,51.11
2022-09-22T13:29:16.309Z,51.32
2022-09-22T13:34:29.290Z,51.37
2022-09-22T13:39:35.578Z,51.08
2022-09-22T13:44:42.098Z,51.02
2022-09-22T13:49:49.424Z,51.63
2022-09-22T13:54:56.510Z,51.33
2022-09-22T14:00:01.562Z,51.60
2022-09-22T14:05:18.260Z,51.80
2022-09-22T14:10:22.143Z,51.88
2022-09-22T14:15:36.689Z,51.96
2022-09-22T14:20:42.050Z,52.05
2022-09-22T14:25:46.160Z,51.78
2022-09-22T14:30:51.316Z,51.91
2022-09-22T14:36:06.222Z,52.09
2022-09-22T14:41:25.825Z,52.23
2022-09-22T14:46:39.070Z,52.49
2022-09-22T14:51:47.159Z,52.33
2022-09-22T14:56:50.502Z,52.31
2022-09-22T15:01:56.490Z,52.60
2022-09-22T15:07:04.486Z,52.95
2022-09-22T15:12:40.470Z,53.25
2022-09-22T15:17:50.022Z,53.30
2022-09-22T15:22:54.237Z,53.47
2022-09-22T15:27:57.501Z,53.69
2022-09-22T15:33:00.863Z,53.77
2022-09-22T15:38:05.094Z,54.23
2022-09-22T15:43:13.667Z,54.31
2022-09-22T15:48:38.927Z,54.53
2022-09-22T15:53:42.318Z,54.40
2022-09-22T15:58:46.190Z,54.99
2022-09-22T16:03:49.861Z,54.98
2022-09-22T16:08:54.403Z,55.32
2022-09-22T16:14:00.243Z,55.59
2022-09-22T16:19:05.077Z,55.83
2022-09-22T16:24:10.980Z,55.77
2022-09-22T16:29:14.483Z,56.22
2022-09-22T16:34:18.056Z,56.34
2022-09-22T16:39:22.867Z,55.99
2022-09-22T16:44:27.682Z,56.30
2022-09-22T16:49:30.888Z,56.26
2022-09-22T16:54:35.121Z,56.42
2022-09-22T16:59:38.692Z,56.39
2022-09-22T17:04:42.188Z,56.62
2022-09-22T17:09:48.511Z,56.61
2022-09-22T17:14:51.879Z,56.65
2022-09-22T17:19:55.123Z,56.83
2022-09-22T17:24:58.900Z,56.94
2022-09-22T17:30:02.837Z,56.98
2022-09-22T17:35:07.345Z,56.91
2022-09-22T17:40:10.791Z,57.11
2022-09-22T17:45:14.190Z,57.19
2022-09-22T17:50:17.421Z,57.27
2022-09-22T17:55:22.743Z,57.41
2022-09-22T18:00:26.312Z,57.53
2022-09-22T18:05:29.566Z,57.95
2022-09-22T18:10:32.829Z,57.96
2022-09-22T18:15:36.299Z,58.22
2022-09-22T18:20:39.798Z,57.86
2022-09-22T18:25:43.309Z,58.00
2022-09-22T18:30:46.411Z,58.18
2022-09-22T18:35:49.607Z,57.99
2022-09-22T18:40:52.838Z,58.49
2022-09-22T18:45:56.608Z,58.52
2022-09-22T18:50:59.981Z,58.67
2022-09-22T18:56:17.582Z,58.29
2022-09-22T19:01:22.345Z,58.88
2022-09-22T19:06:25.924Z,58.79
2022-09-22T19:11:29.390Z,58.94
2022-09-22T19:16:32.797Z,58.92
2022-09-22T19:21:36.689Z,58.89
2022-09-22T19:26:41.729Z,58.95
2022-09-22T19:31:45.957Z,59.12
2022-09-22T19:36:49.555Z,59.41
2022-09-22T19:41:53.655Z,59.35
2022-09-22T19:46:57.006Z,59.50
2022-09-22T19:52:00.250Z,59.81
2022-09-22T19:57:03.867Z,59.69
2022-09-22T20:02:15.461Z,59.90
2022-09-22T20:07:18.698Z,59.95
2022-09-22T20:12:22.555Z,59.89
2022-09-22T20:17:26.674Z,59.98
2022-09-22T20:22:31.309Z,60.09
2022-09-22T20:27:37.359Z,60.33
2022-09-22T20:32:41.182Z,60.28
2022-09-22T20:37:44.993Z,60.28
2022-09-22T20:42:53.735Z,60.14
2022-09-22T20:47:57.454Z,60.24
2022-09-22T20:53:01.464Z,60.38
2022-09-22T20:58:05.816Z,60.28
2022-09-22T21:03:09.440Z,60.45
2022-09-22T21:08:12.878Z,60.30
2022-09-22T21:13:16.280Z,60.35
2022-09-22T21:18:20.157Z,60.44
2022-09-22T21:23:24.320Z,60.53
2022-09-22T21:28:28.892Z,60.77
2022-09-22T21:33:33.958Z,60.59
2022-09-22T21:38:38.020Z,60.65
2022-09-22T21:43:41.890Z,60.76
2022-09-22T21:48:45.521Z,60.89
2022-09-22T21:53:52.419Z,60.90
2022-09-22T21:58:56.021Z,61.30
2022-09-22T22:04:01.305Z,61.21
2022-09-22T22:09:20.169Z,61.43
2022-09-22T22:14:26.433Z,61.40
2022-09-22T22:19:30.144Z,61.51
2022-09-22T22:24:33.690Z,61.72
2022-09-22T22:29:38.416Z,61.81
2022-09-22T22:34:41.871Z,61.76
2022-09-22T22:39:45.257Z,61.84
2022-09-22T22:44:48.668Z,61.98
2022-09-22T22:49:52.161Z,61.90
2022-09-22T22:54:55.516Z,61.98
2022-09-22T22:59:58.906Z,62.38
2022-09-22T23:05:02.357Z,62.23
2022-09-22T23:10:06.613Z,62.48
2022-09-22T23:15:10.476Z,62.45
2022-09-22T23:20:14.044Z,62.53
2022-09-22T23:25:17.577Z,62.48
2022-09-22T23:30:20.984Z,62.88
2022-09-22T23:35:24.384Z,62.89
2022-09-22T23:40:30.607Z,63.08
2022-09-22T23:45:40.843Z,63.16
2022-09-22T23:50:48.916Z,63.26
2022-09-22T23:55:52.844Z,63.51
